Terminal Aerodrome Forecast
Issued by NWS Flagstaff, AZ

Home | Current Version | Previous Version | Text Only | Print | Product List | Glossary On
Versions: 1 2 3 4 5 6 7 8 9 10 11 12 13
000
FTUS45 KFGZ 292156 AAA
TAFFLG
TAF AMD
KFLG 292156Z 2922/3018 24007KT P6SM VCTS FEW090CB BKN110
      TEMPO 2922/2924 VRB15G25KT 6SM -SHRA BKN090
     FM300100 VRB03KT P6SM BKN080 BKN200
      TEMPO 3001/3005 6SM -SHRA BKN070=

USA.gov is the U.S. government's official web portal to all federal, state and local government web resources and services.